sensor_id;sensor_type;location;lat;lon;timestamp;temperature;humidity
70807;DHT22;58882;52.170;5.386;2024-01-30T00:00:04;18.00;49.00
70807;DHT22;58882;52.170;5.386;2024-01-30T00:02:32;18.00;49.00
70807;DHT22;58882;52.170;5.386;2024-01-30T00:04:59;17.90;49.00
70807;DHT22;58882;52.170;5.386;2024-01-30T00:07:25;17.90;49.10
70807;DHT22;58882;52.170;5.386;2024-01-30T00:09:53;18.00;49.10
70807;DHT22;58882;52.170;5.386;2024-01-30T00:12:20;17.90;49.20
70807;DHT22;58882;52.170;5.386;2024-01-30T00:14:47;17.90;49.30
70807;DHT22;58882;52.170;5.386;2024-01-30T00:17:16;17.90;49.40
70807;DHT22;58882;52.170;5.386;2024-01-30T00:19:43;17.90;49.40
70807;DHT22;58882;52.170;5.386;2024-01-30T00:22:10;17.90;49.60
70807;DHT22;58882;52.170;5.386;2024-01-30T00:24:37;17.90;49.70
70807;DHT22;58882;52.170;5.386;2024-01-30T00:27:04;17.90;49.80
70807;DHT22;58882;52.170;5.386;2024-01-30T00:29:31;17.90;49.80
70807;DHT22;58882;52.170;5.386;2024-01-30T00:32:00;17.90;49.80
70807;DHT22;58882;52.170;5.386;2024-01-30T00:34:27;17.90;49.90
70807;DHT22;58882;52.170;5.386;2024-01-30T00:36:54;17.90;50.00
70807;DHT22;58882;52.170;5.386;2024-01-30T00:39:21;17.90;50.10
70807;DHT22;58882;52.170;5.386;2024-01-30T00:41:48;17.90;50.10
70807;DHT22;58882;52.170;5.386;2024-01-30T00:44:15;17.90;50.20
70807;DHT22;58882;52.170;5.386;2024-01-30T00:46:42;17.90;50.30
70807;DHT22;58882;52.170;5.386;2024-01-30T00:49:10;17.90;50.30
70807;DHT22;58882;52.170;5.386;2024-01-30T00:51:37;17.90;50.30
70807;DHT22;58882;52.170;5.386;2024-01-30T00:54:04;17.90;50.30
70807;DHT22;58882;52.170;5.386;2024-01-30T00:56:32;17.90;50.10
70807;DHT22;58882;52.170;5.386;2024-01-30T00:58:59;17.90;50.30
70807;DHT22;58882;52.170;5.386;2024-01-30T01:01:26;17.90;50.30
70807;DHT22;58882;52.170;5.386;2024-01-30T01:03:54;17.80;50.20
70807;DHT22;58882;52.170;5.386;2024-01-30T01:06:21;17.80;50.30
70807;DHT22;58882;52.170;5.386;2024-01-30T01:08:47;17.90;50.30
70807;DHT22;58882;52.170;5.386;2024-01-30T01:11:15;17.90;50.40
70807;DHT22;58882;52.170;5.386;2024-01-30T01:13:42;17.90;50.30
70807;DHT22;58882;52.170;5.386;2024-01-30T01:16:08;17.80;50.30
70807;DHT22;58882;52.170;5.386;2024-01-30T01:18:35;17.80;50.30
70807;DHT22;58882;52.170;5.386;2024-01-30T01:21:02;17.80;50.40
70807;DHT22;58882;52.170;5.386;2024-01-30T01:23:29;17.80;50.50
70807;DHT22;58882;52.170;5.386;2024-01-30T01:25:56;17.80;50.40
70807;DHT22;58882;52.170;5.386;2024-01-30T01:28:27;17.80;50.30
70807;DHT22;58882;52.170;5.386;2024-01-30T01:30:53;17.80;50.30
70807;DHT22;58882;52.170;5.386;2024-01-30T01:33:25;17.80;50.20
70807;DHT22;58882;52.170;5.386;2024-01-30T01:35:53;17.80;50.10
70807;DHT22;58882;52.170;5.386;2024-01-30T01:38:20;17.80;49.90
70807;DHT22;58882;52.170;5.386;2024-01-30T01:40:47;17.80;49.70
70807;DHT22;58882;52.170;5.386;2024-01-30T01:43:13;17.80;49.50
70807;DHT22;58882;52.170;5.386;2024-01-30T01:45:41;17.80;49.40
70807;DHT22;58882;52.170;5.386;2024-01-30T01:48:08;17.80;49.20
70807;DHT22;58882;52.170;5.386;2024-01-30T01:50:36;17.80;49.10
70807;DHT22;58882;52.170;5.386;2024-01-30T01:53:06;17.80;49.00
70807;DHT22;58882;52.170;5.386;2024-01-30T01:55:35;17.70;48.90
70807;DHT22;58882;52.170;5.386;2024-01-30T01:58:02;17.70;49.00
70807;DHT22;58882;52.170;5.386;2024-01-30T02:00:30;17.70;49.20
70807;DHT22;58882;52.170;5.386;2024-01-30T02:02:58;17.70;49.20
70807;DHT22;58882;52.170;5.386;2024-01-30T02:05:26;17.70;49.10
70807;DHT22;58882;52.170;5.386;2024-01-30T02:07:54;17.70;49.00
70807;DHT22;58882;52.170;5.386;2024-01-30T02:10:21;17.70;48.90
70807;DHT22;58882;52.170;5.386;2024-01-30T02:12:48;17.70;48.90
70807;DHT22;58882;52.170;5.386;2024-01-30T02:15:15;17.70;49.00
70807;DHT22;58882;52.170;5.386;2024-01-30T02:17:42;17.70;49.00
70807;DHT22;58882;52.170;5.386;2024-01-30T02:20:10;17.70;49.10
70807;DHT22;58882;52.170;5.386;2024-01-30T02:22:37;17.70;49.10
70807;DHT22;58882;52.170;5.386;2024-01-30T02:25:05;17.70;49.10
70807;DHT22;58882;52.170;5.386;2024-01-30T02:27:32;17.70;49.20
70807;DHT22;58882;52.170;5.386;2024-01-30T02:29:59;17.70;49.20
70807;DHT22;58882;52.170;5.386;2024-01-30T02:32:26;17.70;49.20
70807;DHT22;58882;52.170;5.386;2024-01-30T02:34:53;17.70;50.20
70807;DHT22;58882;52.170;5.386;2024-01-30T02:37:19;17.70;49.20
70807;DHT22;58882;52.170;5.386;2024-01-30T02:39:46;17.70;49.30
70807;DHT22;58882;52.170;5.386;2024-01-30T02:42:13;17.70;49.20
70807;DHT22;58882;52.170;5.386;2024-01-30T02:44:40;17.70;49.20
70807;DHT22;58882;52.170;5.386;2024-01-30T02:47:07;17.70;49.30
70807;DHT22;58882;52.170;5.386;2024-01-30T02:49:34;17.70;49.30
70807;DHT22;58882;52.170;5.386;2024-01-30T02:52:01;17.70;49.30
70807;DHT22;58882;52.170;5.386;2024-01-30T02:54:28;17.70;49.40
70807;DHT22;58882;52.170;5.386;2024-01-30T02:56:54;17.70;49.40
70807;DHT22;58882;52.170;5.386;2024-01-30T02:59:21;17.70;49.40
70807;DHT22;58882;52.170;5.386;2024-01-30T03:01:48;17.70;49.40
70807;DHT22;58882;52.170;5.386;2024-01-30T03:04:15;17.70;49.40
70807;DHT22;58882;52.170;5.386;2024-01-30T03:06:46;17.70;49.40
70807;DHT22;58882;52.170;5.386;2024-01-30T03:09:19;17.70;49.40
70807;DHT22;58882;52.170;5.386;2024-01-30T03:11:46;17.70;49.40
70807;DHT22;58882;52.170;5.386;2024-01-30T03:14:12;17.70;49.30
70807;DHT22;58882;52.170;5.386;2024-01-30T03:16:39;17.70;49.40
70807;DHT22;58882;52.170;5.386;2024-01-30T03:19:07;17.60;49.30
70807;DHT22;58882;52.170;5.386;2024-01-30T03:21:36;17.70;50.50
70807;DHT22;58882;52.170;5.386;2024-01-30T03:24:03;17.70;49.50
70807;DHT22;58882;52.170;5.386;2024-01-30T03:26:30;17.70;49.50
70807;DHT22;58882;52.170;5.386;2024-01-30T03:28:57;17.70;49.60
70807;DHT22;58882;52.170;5.386;2024-01-30T03:31:24;17.60;49.50
70807;DHT22;58882;52.170;5.386;2024-01-30T03:33:51;17.70;49.60
70807;DHT22;58882;52.170;5.386;2024-01-30T03:36:18;17.60;49.50
70807;DHT22;58882;52.170;5.386;2024-01-30T03:38:45;17.70;49.60
70807;DHT22;58882;52.170;5.386;2024-01-30T03:41:12;17.60;49.60
70807;DHT22;58882;52.170;5.386;2024-01-30T03:43:39;17.60;49.50
70807;DHT22;58882;52.170;5.386;2024-01-30T03:46:06;17.70;49.50
70807;DHT22;58882;52.170;5.386;2024-01-30T03:48:33;17.60;49.60
70807;DHT22;58882;52.170;5.386;2024-01-30T03:50:59;17.60;49.60
70807;DHT22;58882;52.170;5.386;2024-01-30T03:53:27;17.60;49.70
70807;DHT22;58882;52.170;5.386;2024-01-30T03:55:53;17.70;49.90
70807;DHT22;58882;52.170;5.386;2024-01-30T03:58:20;17.60;49.80
70807;DHT22;58882;52.170;5.386;2024-01-30T04:00:47;17.60;50.00
70807;DHT22;58882;52.170;5.386;2024-01-30T04:03:15;17.60;49.90
70807;DHT22;58882;52.170;5.386;2024-01-30T04:05:45;17.70;49.80
70807;DHT22;58882;52.170;5.386;2024-01-30T04:08:12;17.70;49.60
70807;DHT22;58882;52.170;5.386;2024-01-30T04:10:38;17.70;49.50
70807;DHT22;58882;52.170;5.386;2024-01-30T04:13:05;17.70;49.40
70807;DHT22;58882;52.170;5.386;2024-01-30T04:15:37;17.60;49.30
70807;DHT22;58882;52.170;5.386;2024-01-30T04:18:04;17.70;49.30
70807;DHT22;58882;52.170;5.386;2024-01-30T04:20:31;17.70;49.20
70807;DHT22;58882;52.170;5.386;2024-01-30T04:22:58;17.70;49.20
70807;DHT22;58882;52.170;5.386;2024-01-30T04:25:25;17.70;49.30
70807;DHT22;58882;52.170;5.386;2024-01-30T04:27:53;17.70;49.40
70807;DHT22;58882;52.170;5.386;2024-01-30T04:30:19;17.70;49.40
70807;DHT22;58882;52.170;5.386;2024-01-30T04:32:46;17.70;49.40
70807;DHT22;58882;52.170;5.386;2024-01-30T04:35:13;17.70;49.40
70807;DHT22;58882;52.170;5.386;2024-01-30T04:37:41;17.70;49.50
70807;DHT22;58882;52.170;5.386;2024-01-30T04:40:08;17.70;49.40
70807;DHT22;58882;52.170;5.386;2024-01-30T04:42:36;17.70;49.40
70807;DHT22;58882;52.170;5.386;2024-01-30T04:45:03;17.70;49.40
70807;DHT22;58882;52.170;5.386;2024-01-30T04:47:30;17.70;49.40
70807;DHT22;58882;52.170;5.386;2024-01-30T04:49:57;17.70;49.30
70807;DHT22;58882;52.170;5.386;2024-01-30T04:52:23;17.70;49.40
70807;DHT22;58882;52.170;5.386;2024-01-30T04:54:50;17.70;49.40
70807;DHT22;58882;52.170;5.386;2024-01-30T04:57:17;17.70;49.20
70807;DHT22;58882;52.170;5.386;2024-01-30T04:59:44;17.70;49.20
70807;DHT22;58882;52.170;5.386;2024-01-30T05:02:11;17.70;49.30
70807;DHT22;58882;52.170;5.386;2024-01-30T05:04:38;17.70;49.30
70807;DHT22;58882;52.170;5.386;2024-01-30T05:07:05;17.70;49.30
70807;DHT22;58882;52.170;5.386;2024-01-30T05:09:32;17.70;49.40
70807;DHT22;58882;52.170;5.386;2024-01-30T05:11:59;17.70;49.30
70807;DHT22;58882;52.170;5.386;2024-01-30T05:14:26;17.70;49.20
70807;DHT22;58882;52.170;5.386;2024-01-30T05:16:53;17.70;49.20
70807;DHT22;58882;52.170;5.386;2024-01-30T05:19:19;17.70;49.20
70807;DHT22;58882;52.170;5.386;2024-01-30T05:21:48;17.70;49.30
70807;DHT22;58882;52.170;5.386;2024-01-30T05:24:15;17.70;49.30
70807;DHT22;58882;52.170;5.386;2024-01-30T05:26:44;17.70;49.30
70807;DHT22;58882;52.170;5.386;2024-01-30T05:29:10;17.70;49.30
70807;DHT22;58882;52.170;5.386;2024-01-30T05:31:37;17.70;49.30
70807;DHT22;58882;52.170;5.386;2024-01-30T05:34:04;17.70;49.30
70807;DHT22;58882;52.170;5.386;2024-01-30T05:36:31;17.70;49.30
70807;DHT22;58882;52.170;5.386;2024-01-30T05:38:58;17.70;49.20
70807;DHT22;58882;52.170;5.386;2024-01-30T05:41:25;17.70;49.40
70807;DHT22;58882;52.170;5.386;2024-01-30T05:43:51;17.70;49.40
70807;DHT22;58882;52.170;5.386;2024-01-30T05:46:18;17.70;49.40
70807;DHT22;58882;52.170;5.386;2024-01-30T05:48:48;17.70;49.40
70807;DHT22;58882;52.170;5.386;2024-01-30T05:51:15;17.70;49.40
70807;DHT22;58882;52.170;5.386;2024-01-30T05:53:42;17.70;49.40
70807;DHT22;58882;52.170;5.386;2024-01-30T05:56:09;17.80;49.40
70807;DHT22;58882;52.170;5.386;2024-01-30T05:58:36;17.80;49.30
70807;DHT22;58882;52.170;5.386;2024-01-30T06:01:07;17.70;49.10
70807;DHT22;58882;52.170;5.386;2024-01-30T06:03:35;17.70;49.00
70807;DHT22;58882;52.170;5.386;2024-01-30T06:06:02;17.80;50.00
70807;DHT22;58882;52.170;5.386;2024-01-30T06:08:29;17.70;48.80
70807;DHT22;58882;52.170;5.386;2024-01-30T06:10:56;17.80;48.80
70807;DHT22;58882;52.170;5.386;2024-01-30T06:13:23;17.80;48.60
70807;DHT22;58882;52.170;5.386;2024-01-30T06:15:50;17.80;48.70
70807;DHT22;58882;52.170;5.386;2024-01-30T06:18:16;17.80;48.90
70807;DHT22;58882;52.170;5.386;2024-01-30T06:20:44;17.70;49.00
70807;DHT22;58882;52.170;5.386;2024-01-30T06:23:10;17.80;49.10
70807;DHT22;58882;52.170;5.386;2024-01-30T06:25:40;17.80;49.20
70807;DHT22;58882;52.170;5.386;2024-01-30T06:28:07;17.80;49.30
70807;DHT22;58882;52.170;5.386;2024-01-30T06:30:34;17.80;49.30
70807;DHT22;58882;52.170;5.386;2024-01-30T06:33:01;17.80;49.30
70807;DHT22;58882;52.170;5.386;2024-01-30T06:35:28;17.80;49.30
70807;DHT22;58882;52.170;5.386;2024-01-30T06:37:55;17.80;49.10
70807;DHT22;58882;52.170;5.386;2024-01-30T06:40:22;17.80;49.00
70807;DHT22;58882;52.170;5.386;2024-01-30T06:42:50;17.80;49.00
70807;DHT22;58882;52.170;5.386;2024-01-30T06:45:16;17.80;48.80
70807;DHT22;58882;52.170;5.386;2024-01-30T06:47:43;17.80;49.00
70807;DHT22;58882;52.170;5.386;2024-01-30T06:50:10;17.90;49.10
70807;DHT22;58882;52.170;5.386;2024-01-30T06:52:37;17.80;49.00
70807;DHT22;58882;52.170;5.386;2024-01-30T06:55:04;17.80;48.90
70807;DHT22;58882;52.170;5.386;2024-01-30T06:57:31;17.90;48.80
70807;DHT22;58882;52.170;5.386;2024-01-30T06:59:58;17.80;48.70
70807;DHT22;58882;52.170;5.386;2024-01-30T07:02:25;17.80;48.70
70807;DHT22;58882;52.170;5.386;2024-01-30T07:04:52;17.80;48.70
70807;DHT22;58882;52.170;5.386;2024-01-30T07:07:19;17.80;48.80
70807;DHT22;58882;52.170;5.386;2024-01-30T07:09:46;17.80;49.20
70807;DHT22;58882;52.170;5.386;2024-01-30T07:12:14;17.80;48.90
70807;DHT22;58882;52.170;5.386;2024-01-30T07:14:41;17.80;48.90
70807;DHT22;58882;52.170;5.386;2024-01-30T07:17:08;17.80;48.90
70807;DHT22;58882;52.170;5.386;2024-01-30T07:19:34;17.90;48.90
70807;DHT22;58882;52.170;5.386;2024-01-30T07:22:01;17.80;49.00
70807;DHT22;58882;52.170;5.386;2024-01-30T07:24:28;17.80;49.10
70807;DHT22;58882;52.170;5.386;2024-01-30T07:26:55;17.90;49.10
70807;DHT22;58882;52.170;5.386;2024-01-30T07:29:22;17.90;49.10
70807;DHT22;58882;52.170;5.386;2024-01-30T07:31:49;17.90;49.10
70807;DHT22;58882;52.170;5.386;2024-01-30T07:34:16;17.90;49.10
70807;DHT22;58882;52.170;5.386;2024-01-30T07:36:43;17.90;49.10
70807;DHT22;58882;52.170;5.386;2024-01-30T07:39:10;17.90;49.00
70807;DHT22;58882;52.170;5.386;2024-01-30T07:41:37;17.90;48.90
70807;DHT22;58882;52.170;5.386;2024-01-30T07:44:04;17.90;48.80
70807;DHT22;58882;52.170;5.386;2024-01-30T07:46:30;17.90;48.70
70807;DHT22;58882;52.170;5.386;2024-01-30T07:48:58;17.90;48.60
70807;DHT22;58882;52.170;5.386;2024-01-30T07:51:25;17.90;48.50
70807;DHT22;58882;52.170;5.386;2024-01-30T07:53:52;17.90;48.50
70807;DHT22;58882;52.170;5.386;2024-01-30T07:56:19;17.90;48.60
70807;DHT22;58882;52.170;5.386;2024-01-30T07:58:46;17.90;48.60
70807;DHT22;58882;52.170;5.386;2024-01-30T08:01:14;18.00;48.60
70807;DHT22;58882;52.170;5.386;2024-01-30T08:03:41;18.00;48.60
70807;DHT22;58882;52.170;5.386;2024-01-30T08:06:09;18.00;48.50
70807;DHT22;58882;52.170;5.386;2024-01-30T08:08:36;18.00;48.50
70807;DHT22;58882;52.170;5.386;2024-01-30T08:11:04;18.00;48.50
70807;DHT22;58882;52.170;5.386;2024-01-30T08:13:31;17.90;48.50
70807;DHT22;58882;52.170;5.386;2024-01-30T08:15:58;18.00;48.50
70807;DHT22;58882;52.170;5.386;2024-01-30T08:18:25;18.00;48.50
70807;DHT22;58882;52.170;5.386;2024-01-30T08:20:51;18.00;48.50
70807;DHT22;58882;52.170;5.386;2024-01-30T08:23:18;18.00;48.50
70807;DHT22;58882;52.170;5.386;2024-01-30T08:25:45;18.00;48.50
70807;DHT22;58882;52.170;5.386;2024-01-30T08:28:12;18.00;48.50
70807;DHT22;58882;52.170;5.386;2024-01-30T08:30:39;18.00;48.50
70807;DHT22;58882;52.170;5.386;2024-01-30T08:33:06;18.00;48.50
70807;DHT22;58882;52.170;5.386;2024-01-30T08:35:33;18.00;48.50
70807;DHT22;58882;52.170;5.386;2024-01-30T08:38:00;18.10;48.60
70807;DHT22;58882;52.170;5.386;2024-01-30T08:40:27;18.10;48.50
70807;DHT22;58882;52.170;5.386;2024-01-30T08:42:55;18.10;48.50
70807;DHT22;58882;52.170;5.386;2024-01-30T08:45:22;18.10;48.50
70807;DHT22;58882;52.170;5.386;2024-01-30T08:47:49;18.10;48.50
70807;DHT22;58882;52.170;5.386;2024-01-30T08:50:16;18.10;48.60
70807;DHT22;58882;52.170;5.386;2024-01-30T08:52:43;18.10;48.60
70807;DHT22;58882;52.170;5.386;2024-01-30T08:55:13;18.20;48.60
70807;DHT22;58882;52.170;5.386;2024-01-30T08:57:40;18.10;48.50
70807;DHT22;58882;52.170;5.386;2024-01-30T09:00:07;18.20;48.60
70807;DHT22;58882;52.170;5.386;2024-01-30T09:02:36;18.20;48.60
70807;DHT22;58882;52.170;5.386;2024-01-30T09:05:03;18.20;48.60
70807;DHT22;58882;52.170;5.386;2024-01-30T09:07:30;18.20;48.60
70807;DHT22;58882;52.170;5.386;2024-01-30T09:09:57;18.20;48.80
70807;DHT22;58882;52.170;5.386;2024-01-30T09:12:24;18.20;48.80
70807;DHT22;58882;52.170;5.386;2024-01-30T09:14:51;18.30;48.90
70807;DHT22;58882;52.170;5.386;2024-01-30T09:17:18;18.30;48.90
70807;DHT22;58882;52.170;5.386;2024-01-30T09:19:45;18.30;48.90
70807;DHT22;58882;52.170;5.386;2024-01-30T09:22:13;18.40;48.70
70807;DHT22;58882;52.170;5.386;2024-01-30T09:24:40;18.40;48.70
70807;DHT22;58882;52.170;5.386;2024-01-30T09:27:07;18.40;48.50
70807;DHT22;58882;52.170;5.386;2024-01-30T09:29:34;18.40;48.40
70807;DHT22;58882;52.170;5.386;2024-01-30T09:32:04;18.50;48.50
70807;DHT22;58882;52.170;5.386;2024-01-30T09:34:31;18.50;48.40
70807;DHT22;58882;52.170;5.386;2024-01-30T09:36:59;18.40;48.30
70807;DHT22;58882;52.170;5.386;2024-01-30T09:39:27;18.40;48.30
70807;DHT22;58882;52.170;5.386;2024-01-30T09:42:12;18.50;48.20
70807;DHT22;58882;52.170;5.386;2024-01-30T09:44:45;18.40;48.20
70807;DHT22;58882;52.170;5.386;2024-01-30T09:47:15;18.50;48.20
70807;DHT22;58882;52.170;5.386;2024-01-30T09:49:43;18.50;48.20
70807;DHT22;58882;52.170;5.386;2024-01-30T09:52:11;18.50;48.10
70807;DHT22;58882;52.170;5.386;2024-01-30T09:54:38;18.50;48.10
70807;DHT22;58882;52.170;5.386;2024-01-30T09:57:06;18.50;48.00
70807;DHT22;58882;52.170;5.386;2024-01-30T09:59:33;18.50;48.00
70807;DHT22;58882;52.170;5.386;2024-01-30T10:02:00;18.50;48.00
70807;DHT22;58882;52.170;5.386;2024-01-30T10:04:27;18.50;48.00
70807;DHT22;58882;52.170;5.386;2024-01-30T10:06:54;18.50;48.00
70807;DHT22;58882;52.170;5.386;2024-01-30T10:09:21;18.50;47.90
70807;DHT22;58882;52.170;5.386;2024-01-30T10:11:49;18.50;47.90
70807;DHT22;58882;52.170;5.386;2024-01-30T10:14:17;18.60;47.90
70807;DHT22;58882;52.170;5.386;2024-01-30T10:16:46;18.60;47.90
70807;DHT22;58882;52.170;5.386;2024-01-30T10:19:13;18.60;47.80
70807;DHT22;58882;52.170;5.386;2024-01-30T10:21:40;18.60;47.80
70807;DHT22;58882;52.170;5.386;2024-01-30T10:24:07;18.60;47.70
70807;DHT22;58882;52.170;5.386;2024-01-30T10:26:34;18.60;47.70
70807;DHT22;58882;52.170;5.386;2024-01-30T10:29:01;18.70;47.70
70807;DHT22;58882;52.170;5.386;2024-01-30T10:31:29;18.70;47.70
70807;DHT22;58882;52.170;5.386;2024-01-30T10:33:56;18.70;47.80
70807;DHT22;58882;52.170;5.386;2024-01-30T10:36:40;18.80;47.80
70807;DHT22;58882;52.170;5.386;2024-01-30T10:39:10;18.90;47.60
70807;DHT22;58882;52.170;5.386;2024-01-30T10:41:47;18.90;47.40
70807;DHT22;58882;52.170;5.386;2024-01-30T10:44:19;18.90;47.20
70807;DHT22;58882;52.170;5.386;2024-01-30T10:46:52;18.90;47.20
70807;DHT22;58882;52.170;5.386;2024-01-30T10:49:23;19.00;47.30
70807;DHT22;58882;52.170;5.386;2024-01-30T10:51:51;19.00;47.20
70807;DHT22;58882;52.170;5.386;2024-01-30T10:54:20;19.00;47.20
70807;DHT22;58882;52.170;5.386;2024-01-30T10:56:47;19.00;47.20
70807;DHT22;58882;52.170;5.386;2024-01-30T10:59:15;19.00;47.20
70807;DHT22;58882;52.170;5.386;2024-01-30T11:01:42;18.90;47.30
70807;DHT22;58882;52.170;5.386;2024-01-30T11:04:10;19.00;47.30
70807;DHT22;58882;52.170;5.386;2024-01-30T11:06:43;19.00;47.30
70807;DHT22;58882;52.170;5.386;2024-01-30T11:09:11;19.10;47.20
70807;DHT22;58882;52.170;5.386;2024-01-30T11:11:55;19.10;47.00
70807;DHT22;58882;52.170;5.386;2024-01-30T11:14:27;19.10;46.90
70807;DHT22;58882;52.170;5.386;2024-01-30T11:16:59;19.20;46.90
70807;DHT22;58882;52.170;5.386;2024-01-30T11:19:30;19.30;46.80
70807;DHT22;58882;52.170;5.386;2024-01-30T11:21:57;19.30;46.60
70807;DHT22;58882;52.170;5.386;2024-01-30T11:24:25;19.40;46.40
70807;DHT22;58882;52.170;5.386;2024-01-30T11:26:56;19.40;46.30
70807;DHT22;58882;52.170;5.386;2024-01-30T11:29:28;19.40;46.20
70807;DHT22;58882;52.170;5.386;2024-01-30T11:31:57;19.50;46.30
70807;DHT22;58882;52.170;5.386;2024-01-30T11:34:24;19.50;46.30
70807;DHT22;58882;52.170;5.386;2024-01-30T11:36:59;19.50;46.30
70807;DHT22;58882;52.170;5.386;2024-01-30T11:39:26;19.50;46.20
70807;DHT22;58882;52.170;5.386;2024-01-30T11:41:54;19.60;46.20
70807;DHT22;58882;52.170;5.386;2024-01-30T11:44:21;19.60;45.90
70807;DHT22;58882;52.170;5.386;2024-01-30T11:46:49;19.60;45.90
70807;DHT22;58882;52.170;5.386;2024-01-30T11:49:17;19.60;45.70
70807;DHT22;58882;52.170;5.386;2024-01-30T11:51:47;19.60;45.60
70807;DHT22;58882;52.170;5.386;2024-01-30T11:54:18;19.70;46.40
70807;DHT22;58882;52.170;5.386;2024-01-30T11:56:44;19.70;45.20
70807;DHT22;58882;52.170;5.386;2024-01-30T11:59:11;19.70;45.30
70807;DHT22;58882;52.170;5.386;2024-01-30T12:01:38;19.70;46.10
70807;DHT22;58882;52.170;5.386;2024-01-30T12:04:08;19.70;45.10
70807;DHT22;58882;52.170;5.386;2024-01-30T12:06:37;19.70;46.10
70807;DHT22;58882;52.170;5.386;2024-01-30T12:09:05;19.70;45.10
70807;DHT22;58882;52.170;5.386;2024-01-30T12:11:32;19.70;45.10
70807;DHT22;58882;52.170;5.386;2024-01-30T12:13:59;19.70;44.90
70807;DHT22;58882;52.170;5.386;2024-01-30T12:16:26;19.70;44.80
70807;DHT22;58882;52.170;5.386;2024-01-30T12:19:00;19.70;44.70
70807;DHT22;58882;52.170;5.386;2024-01-30T12:21:29;19.70;44.70
70807;DHT22;58882;52.170;5.386;2024-01-30T12:23:57;19.70;44.70
70807;DHT22;58882;52.170;5.386;2024-01-30T12:26:24;19.70;45.70
70807;DHT22;58882;52.170;5.386;2024-01-30T12:28:55;19.70;44.90
70807;DHT22;58882;52.170;5.386;2024-01-30T12:31:28;19.60;46.00
70807;DHT22;58882;52.170;5.386;2024-01-30T12:33:56;19.60;45.20
70807;DHT22;58882;52.170;5.386;2024-01-30T12:36:25;19.60;45.30
70807;DHT22;58882;52.170;5.386;2024-01-30T12:38:52;19.60;45.50
70807;DHT22;58882;52.170;5.386;2024-01-30T12:41:20;19.60;45.50
70807;DHT22;58882;52.170;5.386;2024-01-30T12:43:47;19.50;45.50
70807;DHT22;58882;52.170;5.386;2024-01-30T12:46:17;19.50;45.40
70807;DHT22;58882;52.170;5.386;2024-01-30T12:48:44;19.60;45.40
70807;DHT22;58882;52.170;5.386;2024-01-30T12:51:11;19.60;45.60
70807;DHT22;58882;52.170;5.386;2024-01-30T12:53:38;19.60;45.70
70807;DHT22;58882;52.170;5.386;2024-01-30T12:56:06;19.60;45.80
70807;DHT22;58882;52.170;5.386;2024-01-30T12:58:33;19.60;45.80
70807;DHT22;58882;52.170;5.386;2024-01-30T13:01:00;19.60;45.80
70807;DHT22;58882;52.170;5.386;2024-01-30T13:03:27;19.60;45.60
70807;DHT22;58882;52.170;5.386;2024-01-30T13:05:55;19.50;45.50
70807;DHT22;58882;52.170;5.386;2024-01-30T13:08:22;19.60;45.60
70807;DHT22;58882;52.170;5.386;2024-01-30T13:10:49;19.50;45.50
70807;DHT22;58882;52.170;5.386;2024-01-30T13:13:16;19.50;45.50
70807;DHT22;58882;52.170;5.386;2024-01-30T13:15:47;19.50;45.60
70807;DHT22;58882;52.170;5.386;2024-01-30T13:18:14;19.50;45.50
70807;DHT22;58882;52.170;5.386;2024-01-30T13:20:41;19.50;45.50
70807;DHT22;58882;52.170;5.386;2024-01-30T13:23:09;19.50;45.40
70807;DHT22;58882;52.170;5.386;2024-01-30T13:25:36;19.50;45.30
70807;DHT22;58882;52.170;5.386;2024-01-30T13:28:03;19.50;45.20
70807;DHT22;58882;52.170;5.386;2024-01-30T13:30:30;19.50;45.30
70807;DHT22;58882;52.170;5.386;2024-01-30T13:32:58;19.50;45.30
70807;DHT22;58882;52.170;5.386;2024-01-30T13:35:25;19.50;45.20
70807;DHT22;58882;52.170;5.386;2024-01-30T13:37:52;19.50;45.40
70807;DHT22;58882;52.170;5.386;2024-01-30T13:40:19;19.40;45.40
70807;DHT22;58882;52.170;5.386;2024-01-30T13:42:46;19.40;45.40
70807;DHT22;58882;52.170;5.386;2024-01-30T13:45:14;19.40;45.60
70807;DHT22;58882;52.170;5.386;2024-01-30T13:47:41;19.40;45.70
70807;DHT22;58882;52.170;5.386;2024-01-30T13:50:08;19.40;45.70
70807;DHT22;58882;52.170;5.386;2024-01-30T13:52:37;19.30;45.80
70807;DHT22;58882;52.170;5.386;2024-01-30T13:55:11;19.30;45.90
70807;DHT22;58882;52.170;5.386;2024-01-30T13:57:38;19.40;46.00
70807;DHT22;58882;52.170;5.386;2024-01-30T14:00:05;19.30;46.00
70807;DHT22;58882;52.170;5.386;2024-01-30T14:02:38;19.30;46.20
70807;DHT22;58882;52.170;5.386;2024-01-30T14:05:05;19.30;46.30
70807;DHT22;58882;52.170;5.386;2024-01-30T14:07:33;19.30;46.30
70807;DHT22;58882;52.170;5.386;2024-01-30T14:10:00;19.30;46.40
70807;DHT22;58882;52.170;5.386;2024-01-30T14:12:27;19.30;46.40
70807;DHT22;58882;52.170;5.386;2024-01-30T14:14:54;19.30;46.40
70807;DHT22;58882;52.170;5.386;2024-01-30T14:17:20;19.30;46.50
70807;DHT22;58882;52.170;5.386;2024-01-30T14:19:47;19.20;46.50
70807;DHT22;58882;52.170;5.386;2024-01-30T14:22:14;19.20;46.50
70807;DHT22;58882;52.170;5.386;2024-01-30T14:24:41;19.20;46.60
70807;DHT22;58882;52.170;5.386;2024-01-30T14:27:10;19.20;46.20
70807;DHT22;58882;52.170;5.386;2024-01-30T14:29:36;19.10;46.10
70807;DHT22;58882;52.170;5.386;2024-01-30T14:32:04;19.00;46.00
70807;DHT22;58882;52.170;5.386;2024-01-30T14:34:31;18.90;47.10
70807;DHT22;58882;52.170;5.386;2024-01-30T14:36:58;18.90;46.30
70807;DHT22;58882;52.170;5.386;2024-01-30T14:39:25;18.80;47.40
70807;DHT22;58882;52.170;5.386;2024-01-30T14:41:52;18.70;46.40
70807;DHT22;58882;52.170;5.386;2024-01-30T14:44:19;18.70;46.60
70807;DHT22;58882;52.170;5.386;2024-01-30T14:46:46;18.60;46.60
70807;DHT22;58882;52.170;5.386;2024-01-30T14:49:13;18.60;46.90
70807;DHT22;58882;52.170;5.386;2024-01-30T14:51:40;18.50;46.90
70807;DHT22;58882;52.170;5.386;2024-01-30T14:54:06;18.50;47.10
70807;DHT22;58882;52.170;5.386;2024-01-30T14:56:33;18.40;47.20
70807;DHT22;58882;52.170;5.386;2024-01-30T14:59:01;18.40;47.30
70807;DHT22;58882;52.170;5.386;2024-01-30T15:01:28;18.30;47.30
70807;DHT22;58882;52.170;5.386;2024-01-30T15:03:55;18.30;48.50
70807;DHT22;58882;52.170;5.386;2024-01-30T15:06:23;18.20;47.50
70807;DHT22;58882;52.170;5.386;2024-01-30T15:08:52;18.20;47.70
70807;DHT22;58882;52.170;5.386;2024-01-30T15:11:20;18.10;47.80
70807;DHT22;58882;52.170;5.386;2024-01-30T15:13:47;18.10;47.80
70807;DHT22;58882;52.170;5.386;2024-01-30T15:16:14;18.10;48.00
70807;DHT22;58882;52.170;5.386;2024-01-30T15:18:41;18.10;48.20
70807;DHT22;58882;52.170;5.386;2024-01-30T15:21:08;18.00;48.20
70807;DHT22;58882;52.170;5.386;2024-01-30T15:23:35;18.00;48.30
70807;DHT22;58882;52.170;5.386;2024-01-30T15:26:02;18.00;48.40
70807;DHT22;58882;52.170;5.386;2024-01-30T15:28:36;18.00;48.40
70807;DHT22;58882;52.170;5.386;2024-01-30T15:31:04;17.90;48.50